Time;durP1;ratioP1;P1;durP2;ratioP2;P2;SDS_P1;SDS_P2;PMS_P1;PMS_P2;Temp;Humidity;BMP_temperature;BMP_pressure;BME280_temperature;BME280_humidity;BME280_pressure;Samples;Min_cycle;Max_cycle;Signal;HPM_P1;HPM_P2
2022/01/28 00:01:46;;;;;;;16.13;3.70;;;4.90;99.90;;;;;;5034575;28;20041;-92
2022/01/28 00:04:13;;;;;;;19.15;3.88;;;4.90;99.90;;;;;;5034399;28;20402;-91
2022/01/28 00:06:39;;;;;;;18.63;2.92;;;5.00;99.90;;;;;;5035174;28;20063;-91
2022/01/28 00:09:05;;;;;;;14.80;2.90;;;5.00;99.90;;;;;;5051356;28;20494;-91
2022/01/28 00:11:30;;;;;;;13.82;2.95;;;5.10;99.90;;;;;;5051012;28;20064;-91
2022/01/28 00:14:10;;;;;;;15.55;2.70;;;5.10;99.90;;;;;;5035490;28;20394;-91
2022/01/28 00:17:25;;;;;;;18.98;2.70;;;5.10;99.90;;;;;;5051158;28;20045;-90
2022/01/28 00:38:48;;;;;;;14.02;2.72;;;5.30;99.90;;;;;;5051399;28;20045;-91
2022/01/28 00:41:14;;;;;;;14.82;2.42;;;5.30;99.90;;;;;;5033733;28;20491;-91
2022/01/28 00:43:40;;;;;;;16.15;2.92;;;5.30;99.90;;;;;;5050547;28;20494;-91
2022/01/28 00:46:06;;;;;;;13.80;2.47;;;5.30;99.90;;;;;;5034055;28;20041;-92
2022/01/28 00:48:32;;;;;;;11.88;2.10;;;5.20;99.90;;;;;;5050791;28;20036;-91
2022/01/28 00:50:57;;;;;;;17.40;2.63;;;5.20;99.90;;;;;;5034008;28;20048;-91
2022/01/28 00:53:23;;;;;;;17.85;3.08;;;5.20;99.90;;;;;;5033483;28;20072;-92
2022/01/28 00:55:49;;;;;;;15.65;2.50;;;5.20;99.90;;;;;;5050662;28;20043;-93
2022/01/28 00:58:17;;;;;;;17.55;2.40;;;5.20;99.90;;;;;;5050663;28;20041;-92
2022/01/28 01:00:43;;;;;;;15.15;2.47;;;5.20;99.90;;;;;;5033603;28;20047;-90
2022/01/28 01:03:08;;;;;;;15.98;2.58;;;5.20;99.90;;;;;;5033572;28;20120;-90
2022/01/28 01:05:34;;;;;;;13.13;2.38;;;5.20;99.90;;;;;;5034669;28;20125;-91
2022/01/28 01:08:04;;;;;;;16.58;2.75;;;5.20;99.90;;;;;;5050263;28;20075;-90
2022/01/28 01:10:30;;;;;;;13.93;2.60;;;5.30;99.90;;;;;;5049664;28;20037;-92
2022/01/28 01:12:56;;;;;;;20.70;2.53;;;5.30;99.90;;;;;;5046396;28;20128;-91
2022/01/28 01:15:26;;;;;;;15.70;2.75;;;5.30;99.90;;;;;;5013696;28;20119;-91
2022/01/28 01:18:20;;;;;;;15.73;2.35;;;5.30;99.90;;;;;;5030347;28;20080;-90
2022/01/28 01:23:22;;;;;;;16.98;2.70;;;5.30;99.90;;;;;;5030141;28;20506;-90
2022/01/28 01:25:52;;;;;;;13.45;2.55;;;5.30;99.90;;;;;;5030164;28;20091;-91
2022/01/28 01:28:20;;;;;;;10.85;1.83;;;5.30;99.90;;;;;;5030479;28;20474;-90
2022/01/28 01:30:47;;;;;;;15.30;2.60;;;5.20;99.90;;;;;;5030044;28;20052;-91
2022/01/28 01:33:13;;;;;;;16.27;3.03;;;5.30;99.90;;;;;;5029869;28;20041;-91
2022/01/28 01:35:40;;;;;;;14.25;2.53;;;5.20;99.90;;;;;;5029540;28;20519;-91
2022/01/28 01:38:07;;;;;;;19.45;2.88;;;5.10;99.90;;;;;;5030082;28;20041;-90
2022/01/28 01:40:41;;;;;;;16.38;2.80;;;5.10;99.90;;;;;;5029805;28;20415;-90
2022/01/28 01:43:28;;;;;;;18.30;3.38;;;5.10;99.90;;;;;;5030094;28;20139;-90
2022/01/28 01:53:59;;;;;;;16.38;3.17;;;5.00;99.90;;;;;;5029823;28;20045;-91
2022/01/28 01:56:25;;;;;;;16.63;3.33;;;5.00;99.90;;;;;;5013630;28;20156;-91
2022/01/28 01:58:51;;;;;;;14.60;2.80;;;5.00;99.90;;;;;;5029944;28;20514;-91
2022/01/28 02:01:17;;;;;;;17.17;3.10;;;5.10;99.90;;;;;;5029356;28;20034;-92
2022/01/28 02:03:42;;;;;;;21.25;3.28;;;5.10;99.90;;;;;;5013238;28;20557;-91
2022/01/28 02:06:08;;;;;;;17.30;3.38;;;5.10;99.90;;;;;;5030024;28;20041;-90
2022/01/28 02:08:34;;;;;;;21.15;3.22;;;5.20;99.90;;;;;;5030034;28;20029;-90
2022/01/28 02:11:01;;;;;;;17.92;3.38;;;5.20;99.90;;;;;;5028672;28;20128;-91
2022/01/28 02:13:29;;;;;;;15.68;2.53;;;5.20;99.90;;;;;;5029757;28;20453;-92
2022/01/28 02:15:57;;;;;;;14.30;2.63;;;5.20;99.90;;;;;;5013242;28;20215;-91
2022/01/28 02:18:23;;;;;;;15.82;2.78;;;5.20;99.90;;;;;;5013156;28;20042;-91
2022/01/28 02:20:51;;;;;;;22.40;3.58;;;5.30;99.90;;;;;;5029193;28;20069;-91
2022/01/28 02:23:17;;;;;;;13.50;2.40;;;5.30;99.90;;;;;;5012864;28;20041;-91
2022/01/28 02:25:44;;;;;;;21.25;3.58;;;5.30;99.90;;;;;;5030182;28;20046;-91
2022/01/28 02:28:12;;;;;;;18.15;3.97;;;5.30;99.90;;;;;;5032965;28;20076;-91
2022/01/28 02:30:38;;;;;;;18.15;3.45;;;5.40;99.90;;;;;;5016518;28;20038;-91
2022/01/28 02:33:16;;;;;;;17.25;2.70;;;5.40;99.90;;;;;;5016582;28;20079;-91
2022/01/28 02:35:43;;;;;;;18.88;3.42;;;5.40;99.90;;;;;;5016756;28;20077;-91
2022/01/28 02:38:10;;;;;;;14.80;2.97;;;5.40;99.90;;;;;;5033073;28;20140;-91
2022/01/28 02:40:36;;;;;;;14.77;3.38;;;5.40;99.90;;;;;;5033048;28;20404;-91
2022/01/28 02:43:27;;;;;;;23.83;3.55;;;5.50;99.90;;;;;;5016177;28;20037;-91
2022/01/28 02:45:56;;;;;;;19.42;2.85;;;5.50;99.90;;;;;;5032942;28;20103;-92
2022/01/28 02:48:26;;;;;;;19.80;3.33;;;5.50;99.90;;;;;;5032904;28;20041;-92
2022/01/28 02:53:29;;;;;;;15.57;3.10;;;5.50;99.90;;;;;;5032672;28;20042;-91
2022/01/28 02:56:02;;;;;;;18.83;3.70;;;5.60;99.90;;;;;;5016278;28;20045;-91
2022/01/28 02:58:28;;;;;;;17.70;3.30;;;5.60;99.90;;;;;;5032595;28;20114;-91
2022/01/28 03:00:57;;;;;;;13.40;2.97;;;5.60;99.90;;;;;;5015794;28;20047;-90
2022/01/28 03:03:23;;;;;;;16.70;3.88;;;5.60;99.90;;;;;;5032477;28;20084;-92
2022/01/28 03:05:50;;;;;;;19.35;3.13;;;5.60;99.90;;;;;;5032655;28;20073;-90
2022/01/28 03:08:17;;;;;;;18.73;3.13;;;5.60;99.90;;;;;;5032894;28;20136;-91
2022/01/28 03:10:54;;;;;;;19.40;3.83;;;5.60;99.90;;;;;;5032022;28;20095;-89
2022/01/28 03:16:06;;;;;;;21.88;3.60;;;5.50;99.90;;;;;;5032894;28;20523;-92
2022/01/28 03:18:41;;;;;;;18.20;3.33;;;5.40;99.90;;;;;;5032105;28;20084;-91
2022/01/28 03:21:19;;;;;;;19.85;2.97;;;5.40;99.90;;;;;;5032193;28;20380;-91
2022/01/28 03:23:45;;;;;;;17.83;2.63;;;5.40;99.90;;;;;;5032110;28;20041;-90
2022/01/28 03:26:10;;;;;;;19.05;3.25;;;5.40;99.90;;;;;;5032357;28;20041;-91
2022/01/28 03:28:36;;;;;;;23.02;3.30;;;5.40;99.90;;;;;;5015940;28;20255;-91
2022/01/28 03:31:02;;;;;;;19.67;3.10;;;5.30;99.90;;;;;;5015792;28;20077;-92
2022/01/28 03:33:27;;;;;;;15.55;2.90;;;5.30;99.90;;;;;;5015040;28;20084;-90
2022/01/28 03:35:53;;;;;;;15.23;2.53;;;5.30;99.90;;;;;;5015648;28;20049;-91
2022/01/28 03:38:18;;;;;;;18.55;3.28;;;5.30;99.90;;;;;;5031876;28;20100;-92
2022/01/28 03:40:45;;;;;;;19.23;3.65;;;5.30;99.90;;;;;;5015182;28;20042;-90
2022/01/28 03:43:10;;;;;;;17.27;3.17;;;5.30;99.90;;;;;;5031645;28;20041;-91
2022/01/28 03:45:36;;;;;;;16.70;3.13;;;5.30;99.90;;;;;;5015513;28;20048;-91
2022/01/28 03:48:02;;;;;;;19.52;3.45;;;5.30;99.90;;;;;;5031716;28;20128;-91
2022/01/28 03:50:32;;;;;;;22.83;3.45;;;5.40;99.90;;;;;;5031632;28;20573;-91
2022/01/28 03:52:58;;;;;;;18.40;2.92;;;5.30;99.90;;;;;;5014983;28;20396;-92
2022/01/28 03:55:24;;;;;;;15.82;3.17;;;5.30;99.90;;;;;;5031655;28;20048;-91
2022/01/28 03:57:49;;;;;;;14.88;3.47;;;5.30;99.90;;;;;;5031618;28;20114;-91
2022/01/28 04:00:15;;;;;;;19.88;3.33;;;5.30;99.90;;;;;;5031765;28;20143;-92
2022/01/28 04:02:43;;;;;;;16.77;3.42;;;5.20;99.90;;;;;;5030786;28;20067;-91
2022/01/28 04:13:25;;;;;;;17.85;3.97;;;5.10;99.90;;;;;;5033044;28;20494;-90
2022/01/28 04:18:36;;;;;;;24.15;3.28;;;5.00;99.90;;;;;;5040399;28;20041;-90
2022/01/28 04:21:02;;;;;;;21.10;3.83;;;5.00;99.90;;;;;;5050518;28;20498;-90
2022/01/28 04:23:27;;;;;;;15.82;3.50;;;5.00;99.90;;;;;;5050537;28;20522;-90
2022/01/28 04:25:53;;;;;;;25.85;3.95;;;5.00;99.90;;;;;;5051297;28;20033;-90
2022/01/28 04:28:18;;;;;;;17.83;3.22;;;5.00;99.90;;;;;;5051311;28;20402;-91
2022/01/28 04:30:44;;;;;;;20.17;3.67;;;5.00;99.90;;;;;;5050759;28;20499;-90
2022/01/28 04:33:10;;;;;;;25.23;4.38;;;5.00;99.90;;;;;;5050932;28;20040;-91
2022/01/28 04:35:36;;;;;;;19.50;4.63;;;5.10;99.90;;;;;;5034012;28;20537;-91
2022/01/28 04:40:44;;;;;;;19.77;3.60;;;5.00;99.90;;;;;;5050452;28;20106;-90
2022/01/28 04:43:13;;;;;;;17.38;2.97;;;5.00;99.90;;;;;;5033990;28;20189;-91
2022/01/28 04:45:48;;;;;;;19.77;3.63;;;5.00;99.90;;;;;;5050657;28;20060;-90
2022/01/28 04:48:44;;;;;;;26.63;4.45;;;5.00;99.90;;;;;;5034116;28;20041;-91
2022/01/28 04:51:18;;;;;;;19.70;3.72;;;5.00;99.90;;;;;;5049187;28;20044;-90
2022/01/28 04:54:02;;;;;;;27.00;3.55;;;5.10;99.90;;;;;;5041652;28;20033;-91
2022/01/28 04:56:48;;;;;;;17.85;3.15;;;5.10;99.90;;;;;;5030837;28;20399;-90
2022/01/28 04:59:34;;;;;;;23.20;3.28;;;5.10;99.90;;;;;;5030363;28;20048;-90
2022/01/28 05:02:28;;;;;;;22.08;4.70;;;5.10;99.90;;;;;;5029795;28;20037;-91
2022/01/28 05:24:17;;;;;;;24.15;4.07;;;5.20;99.90;;;;;;5030155;28;20042;-90
2022/01/28 05:26:58;;;;;;;22.88;3.90;;;5.20;99.90;;;;;;5030244;28;20563;-91
2022/01/28 05:29:24;;;;;;;21.33;3.50;;;5.20;99.90;;;;;;5030040;28;20435;-91
2022/01/28 05:31:50;;;;;;;19.65;4.10;;;5.10;99.90;;;;;;5029818;28;20041;-90
2022/01/28 05:34:15;;;;;;;23.33;4.38;;;5.10;99.90;;;;;;5030064;28;20052;-91
2022/01/28 05:36:41;;;;;;;19.48;3.22;;;5.10;99.90;;;;;;5013550;28;20041;-91
2022/01/28 05:39:07;;;;;;;24.20;4.78;;;5.00;99.90;;;;;;5030000;28;20486;-91
2022/01/28 05:41:32;;;;;;;24.55;5.80;;;4.90;99.90;;;;;;5028385;28;20134;-91
2022/01/28 05:44:00;;;;;;;23.02;3.55;;;4.90;99.90;;;;;;5029787;28;20033;-91
2022/01/28 05:46:28;;;;;;;20.05;4.53;;;4.90;99.90;;;;;;5013532;28;20479;-89
2022/01/28 05:48:54;;;;;;;19.42;3.30;;;4.90;99.90;;;;;;5029959;28;20116;-91
2022/01/28 05:51:19;;;;;;;25.48;4.63;;;4.90;99.90;;;;;;5029536;28;20590;-90
2022/01/28 05:53:45;;;;;;;21.17;3.38;;;4.90;99.90;;;;;;5029722;28;20045;-90
2022/01/28 05:56:10;;;;;;;18.13;3.47;;;4.90;99.90;;;;;;5029700;28;20111;-91
2022/01/28 05:58:36;;;;;;;22.70;3.70;;;4.90;99.90;;;;;;5013140;28;20048;-90
2022/01/28 06:01:02;;;;;;;19.42;4.05;;;4.90;99.90;;;;;;5029665;28;20042;-91
2022/01/28 06:03:27;;;;;;;18.50;4.45;;;4.90;99.90;;;;;;5033494;28;20093;-91
2022/01/28 06:05:53;;;;;;;25.75;4.00;;;4.90;99.90;;;;;;5017122;28;20514;-91
2022/01/28 06:08:18;;;;;;;19.25;3.85;;;4.90;99.90;;;;;;5034066;28;20067;-90
2022/01/28 06:10:44;;;;;;;28.17;4.53;;;4.90;99.90;;;;;;5033574;28;20582;-90
2022/01/28 06:13:11;;;;;;;19.45;3.40;;;4.90;99.90;;;;;;5033474;28;20659;-91
2022/01/28 06:15:40;;;;;;;20.73;3.60;;;4.90;99.90;;;;;;5033640;28;20073;-91
2022/01/28 06:18:06;;;;;;;20.23;3.60;;;4.90;99.90;;;;;;5033498;28;20081;-92
2022/01/28 06:20:32;;;;;;;21.52;3.97;;;4.80;99.90;;;;;;5033263;28;20073;-91
2022/01/28 06:22:57;;;;;;;16.02;3.40;;;4.80;99.90;;;;;;5032598;28;20498;-91
2022/01/28 06:25:23;;;;;;;19.88;3.83;;;4.80;99.90;;;;;;5033452;28;20084;-92
2022/01/28 06:27:48;;;;;;;21.63;3.58;;;4.80;99.90;;;;;;5017164;28;20487;-91
2022/01/28 06:30:16;;;;;;;25.17;3.75;;;4.80;99.90;;;;;;5016916;28;20040;-91
2022/01/28 06:32:42;;;;;;;25.00;4.18;;;4.90;99.90;;;;;;5016691;28;20096;-91
2022/01/28 06:35:08;;;;;;;24.25;4.30;;;4.90;99.90;;;;;;5033357;28;20518;-91
2022/01/28 06:37:42;;;;;;;23.75;4.95;;;4.90;99.90;;;;;;5032848;28;20052;-91
2022/01/28 06:40:11;;;;;;;22.98;5.45;;;4.90;99.90;;;;;;5032753;28;20406;-90
2022/01/28 06:42:36;;;;;;;29.60;3.70;;;5.00;99.90;;;;;;5015664;28;20491;-91
2022/01/28 06:45:03;;;;;;;21.88;4.57;;;5.00;99.90;;;;;;5040926;28;20510;-91
2022/01/28 06:47:29;;;;;;;23.92;3.92;;;5.00;99.90;;;;;;5052827;28;20069;-92
2022/01/28 06:49:54;;;;;;;23.83;4.45;;;5.10;99.90;;;;;;5035438;28;20077;-90
2022/01/28 06:52:20;;;;;;;21.92;4.30;;;5.10;99.90;;;;;;5052441;28;20063;-89
2022/01/28 06:54:46;;;;;;;24.67;4.30;;;5.10;99.90;;;;;;5052459;28;20049;-90
2022/01/28 06:57:11;;;;;;;21.05;3.97;;;5.10;99.90;;;;;;5035993;28;20468;-90
2022/01/28 06:59:37;;;;;;;23.70;4.72;;;5.10;99.90;;;;;;5052782;28;20068;-92
2022/01/28 07:02:03;;;;;;;16.67;3.70;;;5.10;99.90;;;;;;5051818;28;20051;-91
2022/01/28 07:04:28;;;;;;;25.10;4.53;;;5.10;99.90;;;;;;5052250;28;20125;-91
2022/01/28 07:06:54;;;;;;;24.10;4.40;;;5.10;99.90;;;;;;5036023;28;20037;-91
2022/01/28 07:09:19;;;;;;;22.38;4.32;;;5.10;99.90;;;;;;5044918;28;20090;-90
2022/01/28 07:11:45;;;;;;;24.33;4.07;;;5.10;99.90;;;;;;5042521;28;20289;-91
2022/01/28 07:14:11;;;;;;;19.67;3.58;;;5.10;99.90;;;;;;5026960;28;20483;-91
2022/01/28 07:16:36;;;;;;;22.05;4.15;;;5.10;99.90;;;;;;5051667;28;20033;-90
2022/01/28 07:19:03;;;;;;;22.48;4.00;;;5.10;99.90;;;;;;5035682;28;20502;-90
2022/01/28 07:21:29;;;;;;;19.63;3.72;;;5.10;99.90;;;;;;5035091;28;20404;-91
2022/01/28 07:23:55;;;;;;;25.67;4.95;;;5.10;99.90;;;;;;5052450;28;20604;-92
2022/01/28 07:26:21;;;;;;;24.40;4.55;;;5.10;99.90;;;;;;5052305;28;20448;-92
2022/01/28 07:28:47;;;;;;;24.25;4.18;;;5.10;99.90;;;;;;5035727;28;20123;-92
2022/01/28 07:31:16;;;;;;;20.08;3.75;;;5.10;99.90;;;;;;5035015;28;20052;-91
2022/01/28 07:33:42;;;;;;;21.02;4.32;;;5.00;99.90;;;;;;5052094;28;20060;-91
2022/01/28 07:36:08;;;;;;;20.08;3.67;;;5.00;99.90;;;;;;5035127;28;20072;-91
2022/01/28 07:38:33;;;;;;;23.25;4.00;;;5.00;99.90;;;;;;5045791;28;20029;-91
2022/01/28 07:40:59;;;;;;;18.35;3.53;;;5.00;99.90;;;;;;5040224;28;20029;-91
2022/01/28 07:43:25;;;;;;;21.00;4.03;;;4.90;99.90;;;;;;5036168;28;20039;-91
2022/01/28 07:45:51;;;;;;;26.95;3.78;;;5.00;99.90;;;;;;5015220;28;20037;-91
2022/01/28 07:48:17;;;;;;;19.95;4.18;;;4.90;99.90;;;;;;5031529;28;20045;-91
2022/01/28 07:50:42;;;;;;;20.10;3.70;;;4.90;99.90;;;;;;5031408;28;20049;-90
2022/01/28 07:53:10;;;;;;;24.83;6.25;;;4.90;99.90;;;;;;5014836;28;20304;-90
2022/01/28 07:55:36;;;;;;;25.88;5.13;;;4.80;99.90;;;;;;5030749;28;20045;-91
2022/01/28 07:58:01;;;;;;;22.77;4.25;;;4.80;99.90;;;;;;5031326;28;20037;-92
2022/01/28 08:00:27;;;;;;;25.58;5.45;;;4.80;99.90;;;;;;5013140;28;20037;-91
2022/01/28 08:02:53;;;;;;;19.83;4.38;;;4.80;99.90;;;;;;5014445;28;20033;-91
2022/01/28 08:05:19;;;;;;;17.50;3.53;;;4.80;99.90;;;;;;5015049;28;20041;-92
2022/01/28 08:07:46;;;;;;;23.83;5.15;;;4.80;99.90;;;;;;5015196;28;20434;-91
2022/01/28 08:10:11;;;;;;;22.77;4.18;;;4.80;99.90;;;;;;5031278;28;20048;-91
2022/01/28 08:12:52;;;;;;;25.20;4.05;;;4.90;99.90;;;;;;5030188;28;20045;-91
2022/01/28 08:15:19;;;;;;;22.13;4.78;;;4.80;99.90;;;;;;5013932;28;20478;-91
2022/01/28 08:17:45;;;;;;;26.73;5.60;;;4.80;99.90;;;;;;5014315;28;20033;-90
2022/01/28 08:20:11;;;;;;;22.48;4.47;;;4.80;99.90;;;;;;5014227;28;20045;-89
2022/01/28 08:22:49;;;;;;;25.95;4.13;;;4.80;99.90;;;;;;5030457;28;20489;-88
2022/01/28 08:25:17;;;;;;;18.10;4.47;;;4.80;99.90;;;;;;5030171;28;20119;-90
2022/01/28 08:27:44;;;;;;;22.50;4.07;;;4.90;99.90;;;;;;5031208;28;20503;-90
2022/01/28 08:30:11;;;;;;;21.73;4.10;;;4.90;99.90;;;;;;5030840;28;20042;-89
2022/01/28 08:32:36;;;;;;;24.20;3.72;;;4.90;99.90;;;;;;5030847;28;20037;-91
2022/01/28 08:35:02;;;;;;;21.85;4.82;;;4.90;99.90;;;;;;5014445;28;20068;-90
2022/01/28 08:37:28;;;;;;;18.50;3.67;;;5.00;99.90;;;;;;5030561;28;20045;-91
2022/01/28 08:39:53;;;;;;;20.50;4.15;;;5.00;99.90;;;;;;5014340;28;20037;-91
2022/01/28 08:42:19;;;;;;;24.00;4.10;;;5.00;99.90;;;;;;5013708;28;20120;-90
2022/01/28 08:44:45;;;;;;;20.40;3.88;;;5.10;99.90;;;;;;5030562;28;20052;-90
2022/01/28 08:47:10;;;;;;;20.92;3.58;;;5.10;99.90;;;;;;5029602;28;20037;-90
2022/01/28 08:49:36;;;;;;;27.23;3.63;;;5.10;99.90;;;;;;5030502;28;20128;-90
2022/01/28 08:52:02;;;;;;;25.67;4.07;;;5.20;99.90;;;;;;5030149;28;20056;-91
2022/01/28 08:54:28;;;;;;;22.23;4.22;;;5.20;99.90;;;;;;5013983;28;20100;-89
2022/01/28 08:56:54;;;;;;;17.45;3.58;;;5.30;99.90;;;;;;5030255;28;20045;-91
2022/01/28 08:59:19;;;;;;;22.85;5.13;;;5.30;99.90;;;;;;5014480;28;20052;-91
2022/01/28 09:01:45;;;;;;;20.30;3.45;;;5.30;99.90;;;;;;5013712;28;20515;-91
2022/01/28 09:04:10;;;;;;;22.42;3.30;;;5.30;99.90;;;;;;5013397;28;20030;-91
2022/01/28 09:06:36;;;;;;;24.98;4.18;;;5.30;99.90;;;;;;5030630;28;20423;-91
2022/01/28 09:09:02;;;;;;;21.95;4.30;;;5.30;99.90;;;;;;5014077;28;20041;-90
2022/01/28 09:11:32;;;;;;;16.98;3.67;;;5.40;99.90;;;;;;5013293;28;20037;-92
2022/01/28 09:13:58;;;;;;;22.52;3.80;;;5.40;99.90;;;;;;5030586;28;20041;-89
2022/01/28 09:16:24;;;;;;;18.08;3.47;;;5.40;99.90;;;;;;5029934;28;20525;-90
2022/01/28 09:18:50;;;;;;;20.60;3.83;;;5.40;99.90;;;;;;5029472;28;20415;-90
2022/01/28 09:21:16;;;;;;;27.02;5.40;;;5.40;99.90;;;;;;5029978;28;20038;-90
2022/01/28 09:23:41;;;;;;;19.85;3.42;;;5.40;99.90;;;;;;5013306;28;20041;-92
2022/01/28 09:26:08;;;;;;;18.98;3.67;;;5.40;99.90;;;;;;5030154;28;20038;-91
2022/01/28 09:28:33;;;;;;;23.92;3.65;;;5.50;99.90;;;;;;5030213;28;20122;-92
2022/01/28 09:30:59;;;;;;;19.27;3.88;;;5.50;99.90;;;;;;5013471;28;20143;-90
2022/01/28 09:33:24;;;;;;;18.52;4.05;;;5.60;99.90;;;;;;5028473;28;20044;-91
2022/01/28 09:35:50;;;;;;;25.63;4.50;;;5.70;99.90;;;;;;5023997;28;20069;-91
2022/01/28 09:38:16;;;;;;;21.88;3.70;;;5.80;99.90;;;;;;5017214;28;20514;-91
2022/01/28 09:40:42;;;;;;;22.25;4.00;;;5.90;99.90;;;;;;5034029;28;20562;-90
2022/01/28 09:43:08;;;;;;;23.45;3.78;;;6.00;99.90;;;;;;5033296;28;20033;-91
2022/01/28 09:45:35;;;;;;;25.13;4.25;;;6.20;99.90;;;;;;5050834;28;20110;-91
2022/01/28 09:48:01;;;;;;;24.02;4.05;;;6.30;99.90;;;;;;5053879;28;20043;-89
2022/01/28 09:50:29;;;;;;;22.73;3.78;;;6.50;99.90;;;;;;5053617;28;20033;-91
2022/01/28 09:52:56;;;;;;;17.00;3.47;;;6.70;99.90;;;;;;5053731;28;20041;-92
2022/01/28 09:55:24;;;;;;;21.02;4.35;;;6.70;99.90;;;;;;5037522;28;20440;-90
2022/01/28 09:57:53;;;;;;;22.13;4.15;;;6.80;99.90;;;;;;5053657;28;20455;-90
2022/01/28 10:00:22;;;;;;;25.65;4.68;;;6.90;99.90;;;;;;5053573;28;20525;-92
2022/01/28 10:03:10;;;;;;;22.05;4.75;;;7.00;99.90;;;;;;5037020;28;20454;-90
2022/01/28 10:05:41;;;;;;;20.85;3.70;;;7.00;99.90;;;;;;5036967;28;20037;-93
2022/01/28 10:08:18;;;;;;;20.67;4.50;;;7.00;99.90;;;;;;5053646;28;20124;-91
2022/01/28 10:10:47;;;;;;;20.50;4.55;;;7.00;99.90;;;;;;5036946;28;20033;-91
2022/01/28 10:14:04;;;;;;;19.00;3.88;;;7.00;99.90;;;;;;5036888;28;20071;-91
2022/01/28 10:16:17;;;;;;;25.20;4.72;;;7.00;99.90;;;;;;5051071;28;20530;-93
2022/01/28 10:18:51;;;;;;;21.67;4.25;;;7.00;99.90;;;;;;5036621;28;20083;-91
2022/01/28 10:21:24;;;;;;;21.25;4.72;;;7.00;99.90;;;;;;5053335;28;20051;-92
2022/01/28 10:23:57;;;;;;;22.05;3.95;;;7.00;99.90;;;;;;5036267;28;20648;-91
2022/01/28 10:26:45;;;;;;;25.48;3.92;;;7.00;99.90;;;;;;5036682;28;20176;-93
2022/01/28 10:29:17;;;;;;;22.88;4.72;;;7.00;99.90;;;;;;5036282;28;20540;-92
2022/01/28 10:31:49;;;;;;;19.48;4.32;;;7.10;99.90;;;;;;5036163;28;20041;-90
2022/01/28 10:34:24;;;;;;;19.25;3.85;;;7.10;99.90;;;;;;5053690;28;20037;-91
2022/01/28 10:36:51;;;;;;;25.15;4.90;;;7.10;99.90;;;;;;5036339;28;20032;-92
2022/01/28 10:39:20;;;;;;;18.52;4.63;;;7.10;99.90;;;;;;5036392;28;20049;-91
2022/01/28 10:41:58;;;;;;;23.80;4.70;;;7.20;99.90;;;;;;5052363;28;20433;-91
2022/01/28 10:44:25;;;;;;;22.98;4.43;;;7.30;99.90;;;;;;5036223;28;20033;-92
2022/01/28 10:46:56;;;;;;;25.90;6.03;;;7.30;99.90;;;;;;5052522;28;20408;-91
2022/01/28 10:49:35;;;;;;;23.83;5.13;;;7.50;99.90;;;;;;5036295;28;20038;-91
2022/01/28 10:52:11;;;;;;;20.40;3.80;;;7.50;99.90;;;;;;5035319;28;20124;-91
2022/01/28 10:54:38;;;;;;;24.27;4.70;;;7.60;99.90;;;;;;5036214;28;20498;-92
2022/01/28 10:57:07;;;;;;;25.23;4.18;;;7.70;99.90;;;;;;5052719;28;20560;-91
2022/01/28 10:59:35;;;;;;;22.27;4.18;;;7.80;99.90;;;;;;5036155;28;20041;-92
2022/01/28 11:02:02;;;;;;;20.45;5.53;;;7.90;99.90;;;;;;5052360;28;20047;-91
2022/01/28 11:04:29;;;;;;;19.20;3.92;;;8.00;99.90;;;;;;5034826;28;20037;-91
2022/01/28 11:06:58;;;;;;;27.30;5.22;;;8.10;99.90;;;;;;5035949;28;20087;-91
2022/01/28 11:09:24;;;;;;;26.73;5.13;;;8.10;99.90;;;;;;5035824;28;20053;-90
2022/01/28 11:11:52;;;;;;;25.05;5.35;;;8.10;99.90;;;;;;5035410;28;20072;-92
2022/01/28 11:14:21;;;;;;;23.08;4.63;;;8.10;99.90;;;;;;5052523;28;20036;-91
2022/01/28 11:16:47;;;;;;;17.88;4.68;;;8.20;99.90;;;;;;5031424;28;20075;-92
2022/01/28 11:19:18;;;;;;;22.60;4.97;;;8.30;99.90;;;;;;5021064;28;20079;-92
2022/01/28 11:21:44;;;;;;;23.33;4.97;;;8.40;99.90;;;;;;5015803;28;20037;-90
2022/01/28 11:24:35;;;;;;;25.73;4.57;;;8.60;99.90;;;;;;5015699;28;20037;-93
2022/01/28 11:27:07;;;;;;;24.23;4.55;;;8.70;99.90;;;;;;5016164;28;20128;-92
2022/01/28 11:29:32;;;;;;;21.88;4.57;;;8.80;99.90;;;;;;5032514;28;20394;-90
2022/01/28 11:32:14;;;;;;;21.13;3.88;;;8.90;99.90;;;;;;5031599;28;20578;-92
2022/01/28 11:34:56;;;;;;;18.20;4.65;;;8.90;99.90;;;;;;5015614;28;20092;-91
2022/01/28 11:37:29;;;;;;;23.00;4.63;;;9.00;99.80;;;;;;5033300;28;20125;-92
2022/01/28 11:40:10;;;;;;;22.40;4.95;;;8.80;98.50;;;;;;5031857;28;20033;-91
2022/01/28 11:42:36;;;;;;;24.63;4.53;;;8.70;98.90;;;;;;5031567;28;20072;-92
2022/01/28 11:45:06;;;;;;;23.50;4.57;;;8.60;99.30;;;;;;5030175;28;20079;-91
2022/01/28 11:47:41;;;;;;;17.75;3.63;;;8.70;99.30;;;;;;5032080;28;20044;-91
2022/01/28 11:50:12;;;;;;;19.77;4.15;;;8.60;98.20;;;;;;5014937;28;20050;-91
2022/01/28 11:52:47;;;;;;;19.15;3.83;;;8.70;98.30;;;;;;5015296;28;20064;-92
2022/01/28 11:55:18;;;;;;;24.23;4.78;;;8.80;97.30;;;;;;5031701;28;20451;-91
2022/01/28 11:57:54;;;;;;;24.63;4.90;;;8.80;97.70;;;;;;5015249;28;20042;-92
2022/01/28 12:00:23;;;;;;;23.45;4.55;;;8.80;97.80;;;;;;5031536;28;20564;-93
2022/01/28 12:02:51;;;;;;;18.50;4.07;;;8.70;97.70;;;;;;5031244;28;20062;-92
2022/01/28 12:05:29;;;;;;;25.08;4.28;;;8.70;97.90;;;;;;5036954;28;20033;-91
2022/01/28 12:07:55;;;;;;;21.83;4.85;;;8.70;97.40;;;;;;5031323;28;20040;-91
2022/01/28 12:10:24;;;;;;;22.08;4.07;;;8.60;97.30;;;;;;5031452;28;20406;-91
2022/01/28 12:13:01;;;;;;;18.30;4.20;;;8.50;97.60;;;;;;5030664;28;20144;-92
2022/01/28 12:15:30;;;;;;;15.98;3.72;;;8.60;97.20;;;;;;5031557;28;20091;-90
2022/01/28 12:18:09;;;;;;;18.60;4.30;;;8.60;97.00;;;;;;5030925;28;20077;-92
2022/01/28 12:20:44;;;;;;;21.65;4.25;;;8.90;97.20;;;;;;5014933;28;20067;-90
2022/01/28 12:23:09;;;;;;;19.15;3.90;;;9.30;97.50;;;;;;5030787;28;20132;-93
2022/01/28 12:25:35;;;;;;;15.50;3.80;;;9.80;97.40;;;;;;5015087;28;20069;-92
2022/01/28 12:28:25;;;;;;;21.42;4.90;;;10.10;95.70;;;;;;5014723;28;20048;-93
2022/01/28 12:30:50;;;;;;;18.35;3.75;;;11.00;99.60;;;;;;5031643;28;20507;-92
2022/01/28 12:33:22;;;;;;;20.95;4.75;;;11.40;94.30;;;;;;5014228;28;20046;-93
2022/01/28 12:35:50;;;;;;;22.98;5.13;;;11.80;94.10;;;;;;5014835;28;20091;-91
2022/01/28 12:38:20;;;;;;;20.80;5.40;;;12.30;93.10;;;;;;5048360;28;20452;-91
2022/01/28 12:40:49;;;;;;;18.33;4.43;;;12.20;91.80;;;;;;5034490;28;20490;-91
2022/01/28 12:43:20;;;;;;;21.30;4.65;;;12.40;91.60;;;;;;5033963;28;20044;-92
2022/01/28 12:46:01;;;;;;;16.65;4.50;;;12.50;90.60;;;;;;5034018;28;20505;-91
2022/01/28 12:48:27;;;;;;;24.15;4.90;;;13.50;89.00;;;;;;5051185;28;20045;-92
2022/01/28 12:50:57;;;;;;;17.92;4.68;;;14.30;80.70;;;;;;5050991;28;20048;-92
2022/01/28 12:53:34;;;;;;;16.98;4.38;;;15.20;80.60;;;;;;5033425;28;20124;-91
2022/01/28 12:56:01;;;;;;;19.33;3.97;;;15.90;76.30;;;;;;5052803;28;20037;-92
2022/01/28 12:58:40;;;;;;;21.25;4.93;;;15.40;68.10;;;;;;5051213;28;20120;-92
2022/01/28 13:01:08;;;;;;;17.73;4.43;;;14.80;69.20;;;;;;5034574;28;20036;-94
2022/01/28 13:03:38;;;;;;;20.13;4.18;;;14.60;72.90;;;;;;5050382;28;20037;-94
2022/01/28 13:06:24;;;;;;;21.73;4.32;;;15.40;71.70;;;;;;5035787;28;20532;-93
2022/01/28 13:08:51;;;;;;;20.35;4.03;;;15.40;65.90;;;;;;5033550;28;20083;-91
2022/01/28 13:11:17;;;;;;;16.75;4.22;;;15.50;66.20;;;;;;5048857;28;20041;-94
2022/01/28 13:13:47;;;;;;;18.85;3.75;;;15.50;68.20;;;;;;5050630;28;20041;-92
2022/01/28 13:16:13;;;;;;;16.67;4.65;;;15.80;67.50;;;;;;5033644;28;20510;-92
2022/01/28 13:18:57;;;;;;;16.50;4.13;;;15.70;64.70;;;;;;5050587;28;20072;-92
2022/01/28 13:21:24;;;;;;;19.25;3.75;;;15.50;66.30;;;;;;5050709;28;20045;-93
2022/01/28 13:24:06;;;;;;;19.27;3.72;;;15.80;66.60;;;;;;5050959;28;20547;-91
2022/01/28 13:26:32;;;;;;;16.15;3.95;;;15.80;61.90;;;;;;5033823;28;20048;-93
2022/01/28 13:29:09;;;;;;;15.63;3.35;;;15.90;63.90;;;;;;5050725;28;20029;-92
2022/01/28 13:31:36;;;;;;;19.15;4.40;;;16.60;65.30;;;;;;5050138;28;20056;-92
2022/01/28 13:34:05;;;;;;;17.13;4.07;;;17.20;62.30;;;;;;5050928;28;20045;-92
2022/01/28 13:36:48;;;;;;;16.15;3.60;;;16.60;59.30;;;;;;5048083;28;20520;-93
2022/01/28 13:39:19;;;;;;;19.48;4.07;;;15.20;60.10;;;;;;5050553;28;20124;-92
2022/01/28 13:41:50;;;;;;;18.73;3.95;;;14.00;62.80;;;;;;5033880;28;20037;-91
2022/01/28 13:44:24;;;;;;;18.38;4.20;;;13.10;65.20;;;;;;5051357;28;20045;-94
2022/01/28 13:47:01;;;;;;;19.92;4.82;;;12.30;66.40;;;;;;5035109;28;20037;-94
2022/01/28 13:49:29;;;;;;;17.40;4.75;;;11.70;68.30;;;;;;5051192;28;20090;-91
2022/01/28 13:52:06;;;;;;;21.08;4.72;;;11.20;69.80;;;;;;5031875;28;20537;-91
2022/01/28 13:54:32;;;;;;;18.85;4.97;;;11.00;71.40;;;;;;5022352;28;20091;-93
2022/01/28 13:57:04;;;;;;;18.67;4.88;;;10.70;72.30;;;;;;5030218;28;20136;-91
2022/01/28 13:59:31;;;;;;;27.60;5.70;;;10.50;74.40;;;;;;5030109;28;20046;-91
2022/01/28 14:01:59;;;;;;;21.67;5.10;;;10.10;75.20;;;;;;5030483;28;20300;-94
2022/01/28 14:04:32;;;;;;;21.23;6.10;;;9.90;76.80;;;;;;5028089;28;20120;-92